Terminal Aerodrome Forecast
Issued by NWS Dodge City, KS

Home | Current Version | Previous Version | Graphics & Text | Print | Product List | Glossary Off
Versions: 1 2 3 4 5 6 7 8 9 10 11 12 13 14 15 16 17 18 19 20 21 22 23 24 25 26 27 28

000
FTUS43 KDDC 240520
TAFDDC
TAF
KDDC 240520Z 2406/2506 17016KT P6SM VCSH OVC080
     FM241300 17018G26KT P6SM FEW250
     FM241600 16018KT P6SM VCSH BKN250
     FM242100 03013KT P6SM VCSH BKN070
     FM250000 34020G29KT P6SM OVC100=

USA.gov is the U.S. government's official web portal to all federal, state and local government web resources and services.